createdAt,value
2018-09-23T00:00:57.553Z,0
2018-09-23T00:01:57.797Z,0
2018-09-23T00:02:57.256Z,0
2018-09-23T00:03:57.514Z,0
2018-09-23T00:04:57.486Z,0
2018-09-23T00:05:57.476Z,0
2018-09-23T00:06:57.727Z,0
2018-09-23T00:07:57.454Z,0
2018-09-23T00:08:57.692Z,0
2018-09-23T00:09:57.727Z,0
2018-09-23T00:10:57.665Z,0
2018-09-23T00:11:57.646Z,0
2018-09-23T00:12:57.902Z,0
2018-09-23T00:13:57.620Z,0
2018-09-23T00:14:57.599Z,0
2018-09-23T00:15:57.580Z,0
2018-09-23T00:16:57.569Z,0
2018-09-23T00:17:57.548Z,0
2018-09-23T00:18:57.272Z,0
2018-09-23T00:19:57.785Z,0
2018-09-23T00:20:57.515Z,0
2018-09-23T00:21:57.492Z,0
2018-09-23T00:22:57.475Z,0
2018-09-23T00:23:57.466Z,0
2018-09-23T00:24:57.452Z,0
2018-09-23T00:25:57.438Z,0
2018-09-23T00:26:57.421Z,0
2018-09-23T00:27:57.132Z,0
2018-09-23T00:28:57.382Z,0
2018-09-23T00:29:57.633Z,0
2018-09-23T00:30:57.093Z,0
2018-09-23T00:31:57.086Z,0
2018-09-23T00:32:57.322Z,0
2018-09-23T00:33:57.039Z,0
2018-09-23T00:34:57.027Z,0
2018-09-23T00:35:57.541Z,0
2018-09-23T00:36:56.995Z,0
2018-09-23T00:37:56.715Z,0
2018-09-23T00:38:56.961Z,0
2018-09-23T00:39:56.941Z,0
2018-09-23T00:40:57.459Z,0
2018-09-23T00:41:57.180Z,0
2018-09-23T00:42:57.183Z,0
2018-09-23T00:43:57.416Z,0
2018-09-23T00:44:56.868Z,0
2018-09-23T00:45:57.119Z,0
2018-09-23T00:46:57.107Z,0
2018-09-23T00:47:56.821Z,0
2018-09-23T00:48:56.814Z,0
2018-09-23T00:49:57.069Z,0
2018-09-23T00:50:56.787Z,0
2018-09-23T00:51:57.280Z,0
2018-09-23T00:52:56.754Z,0
2018-09-23T00:53:57.004Z,0
2018-09-23T00:54:56.983Z,0
2018-09-23T00:55:56.966Z,0
2018-09-23T00:56:56.688Z,0
2018-09-23T00:57:57.242Z,0
2018-09-23T00:58:57.191Z,0
2018-09-23T00:59:57.169Z,0
2018-09-23T01:00:56.354Z,0
2018-09-23T01:01:56.603Z,0
2018-09-23T01:02:56.856Z,0
2018-09-23T01:03:56.835Z,0
2018-09-23T01:04:57.092Z,0
2018-09-23T01:05:56.542Z,0
2018-09-23T01:06:56.789Z,0
2018-09-23T01:07:56.515Z,0
2018-09-23T01:08:56.494Z,0
2018-09-23T01:09:57.014Z,0
2018-09-23T01:10:56.465Z,0
2018-09-23T01:11:56.189Z,0
2018-09-23T01:12:56.962Z,0
2018-09-23T01:13:56.425Z,0
2018-09-23T01:14:56.413Z,0
2018-09-23T01:15:56.397Z,0
2018-09-23T01:16:56.377Z,0
2018-09-23T01:17:56.625Z,0
2018-09-23T01:18:56.079Z,0
2018-09-23T01:19:56.871Z,0
2018-09-23T01:20:56.318Z,0
2018-09-23T01:21:56.600Z,0
2018-09-23T01:22:56.543Z,0
2018-09-23T01:23:56.534Z,0
2018-09-23T01:24:56.785Z,0
2018-09-23T01:25:56.503Z,0
2018-09-23T01:26:56.750Z,0
2018-09-23T01:27:56.469Z,0
2018-09-23T01:28:56.464Z,0
2018-09-23T01:29:56.709Z,0
2018-09-23T01:30:56.154Z,0
2018-09-23T01:31:56.680Z,0
2018-09-23T01:32:56.391Z,0
2018-09-23T01:33:56.386Z,0
2018-09-23T01:34:56.108Z,0
2018-09-23T01:35:56.612Z,0
2018-09-23T01:36:56.332Z,0
2018-09-23T01:37:56.318Z,0
2018-09-23T01:38:56.032Z,0
2018-09-23T01:39:56.025Z,0
2018-09-23T01:40:56.271Z,0
2018-09-23T01:41:56.281Z,0
2018-09-23T01:42:56.245Z,0
2018-09-23T01:43:55.699Z,0
2018-09-23T01:44:56.211Z,0
2018-09-23T01:45:56.192Z,0
2018-09-23T01:46:56.183Z,0
2018-09-23T01:47:56.168Z,0
2018-09-23T01:48:55.623Z,0
2018-09-23T01:49:56.135Z,0
2018-09-23T01:50:55.858Z,0
2018-09-23T01:51:56.105Z,0
2018-09-23T01:52:56.083Z,0
2018-09-23T01:53:55.812Z,0
2018-09-23T01:54:56.058Z,0
2018-09-23T01:55:56.312Z,0
2018-09-23T01:56:56.295Z,0
2018-09-23T01:57:55.755Z,0
2018-09-23T01:58:56.268Z,0
2018-09-23T01:59:56.246Z,0
2018-09-23T02:00:55.988Z,0
2018-09-23T02:01:55.685Z,0
2018-09-23T02:02:55.944Z,0
2018-09-23T02:03:55.660Z,0
2018-09-23T02:04:55.641Z,0
2018-09-23T02:05:55.675Z,0
2018-09-23T02:06:55.346Z,0
2018-09-23T02:07:55.593Z,0
2018-09-23T02:08:55.848Z,0
2018-09-23T02:09:55.829Z,0
2018-09-23T02:10:56.087Z,0
2018-09-23T02:11:55.538Z,0
2018-09-23T02:12:55.578Z,0
2018-09-23T02:13:55.770Z,0
2018-09-23T02:14:56.025Z,0
2018-09-23T02:15:56.001Z,0
2018-09-23T02:16:55.724Z,0
2018-09-23T02:17:55.444Z,0
2018-09-23T02:18:55.961Z,0
2018-09-23T02:19:55.685Z,0
2018-09-23T02:20:55.920Z,0
2018-09-23T02:21:55.673Z,0
2018-09-23T02:22:55.905Z,0
2018-09-23T02:23:55.349Z,0
2018-09-23T02:24:55.340Z,0
2018-09-23T02:25:56.018Z,0
2018-09-23T02:26:55.580Z,0
2018-09-23T02:27:55.826Z,0
2018-09-23T02:28:55.553Z,0
2018-09-23T02:29:55.526Z,0
2018-09-23T02:30:55.778Z,0
2018-09-23T02:31:55.767Z,0
2018-09-23T02:32:55.777Z,0
2018-09-23T02:33:55.465Z,0
2018-09-23T02:34:55.194Z,0
2018-09-23T02:35:55.177Z,0
2018-09-23T02:36:55.429Z,0
2018-09-23T02:37:55.689Z,0
2018-09-23T02:38:55.669Z,0
2018-09-23T02:39:55.398Z,0
2018-09-23T02:40:55.361Z,0
2018-09-23T02:41:55.356Z,0
2018-09-23T02:42:55.341Z,0
2018-09-23T02:43:55.584Z,0
2018-09-23T02:44:55.031Z,0
2018-09-23T02:45:55.022Z,0
2018-09-23T02:46:55.276Z,0
2018-09-23T02:47:55.256Z,0
2018-09-23T02:48:54.969Z,0
2018-09-23T02:49:54.702Z,0
2018-09-23T02:50:55.204Z,0
2018-09-23T02:51:55.658Z,0
2018-09-23T02:52:55.174Z,0
2018-09-23T02:53:55.154Z,0
2018-09-23T02:54:54.617Z,0
2018-09-23T02:55:55.137Z,0
2018-09-23T02:56:55.381Z,0
2018-09-23T02:57:54.573Z,0
2018-09-23T02:58:55.091Z,0
2018-09-23T02:59:55.068Z,0
2018-09-23T03:00:55.064Z,0
2018-09-23T03:01:54.777Z,0
2018-09-23T03:02:55.291Z,0
2018-09-23T03:03:55.018Z,0
2018-09-23T03:04:55.269Z,0
2018-09-23T03:05:54.719Z,0
2018-09-23T03:06:54.962Z,0
2018-09-23T03:07:54.967Z,0
2018-09-23T03:08:54.668Z,0
2018-09-23T03:09:54.656Z,0
2018-09-23T03:10:55.178Z,0
2018-09-23T03:11:54.624Z,0
2018-09-23T03:12:54.611Z,0
2018-09-23T03:13:54.853Z,0
2018-09-23T03:14:55.109Z,0
2018-09-23T03:15:54.827Z,0
2018-09-23T03:16:55.073Z,0
2018-09-23T03:17:54.344Z,0
2018-09-23T03:18:54.525Z,0
2018-09-23T03:19:54.769Z,0
2018-09-23T03:20:54.753Z,0
2018-09-23T03:21:54.464Z,0
2018-09-23T03:22:54.729Z,0
2018-09-23T03:23:54.974Z,0
2018-09-23T03:24:54.434Z,0
2018-09-23T03:25:54.940Z,0
2018-09-23T03:26:54.404Z,0
2018-09-23T03:27:54.910Z,0
2018-09-23T03:28:54.887Z,0
2018-09-23T03:29:54.624Z,0
2018-09-23T03:30:54.883Z,0
2018-09-23T03:31:54.594Z,0
2018-09-23T03:32:54.586Z,0
2018-09-23T03:33:54.546Z,0
2018-09-23T03:34:54.021Z,0
2018-09-23T03:35:54.524Z,0
2018-09-23T03:36:54.258Z,0
2018-09-23T03:37:54.229Z,0
2018-09-23T03:38:54.482Z,0
2018-09-23T03:39:54.466Z,0
2018-09-23T03:40:54.465Z,0
2018-09-23T03:41:54.430Z,0
2018-09-23T03:42:54.435Z,0
2018-09-23T03:43:54.401Z,0
2018-09-23T03:44:54.134Z,0
2018-09-23T03:45:54.640Z,0
2018-09-23T03:46:54.362Z,0
2018-09-23T03:47:54.601Z,0
2018-09-23T03:48:54.327Z,0
2018-09-23T03:49:54.317Z,0
2018-09-23T03:50:54.298Z,0
2018-09-23T03:51:54.029Z,0
2018-09-23T03:52:54.281Z,0
2018-09-23T03:53:53.983Z,0
2018-09-23T03:54:54.511Z,0
2018-09-23T03:55:54.220Z,0
2018-09-23T03:56:53.939Z,0
2018-09-23T03:57:54.601Z,0
2018-09-23T03:58:53.914Z,0
2018-09-23T03:59:54.419Z,0
2018-09-23T04:00:54.408Z,0
2018-09-23T04:01:54.403Z,0
2018-09-23T04:02:54.108Z,0
2018-09-23T04:03:54.097Z,0
2018-09-23T04:04:53.815Z,0
2018-09-23T04:05:54.329Z,0
2018-09-23T04:06:54.320Z,0
2018-09-23T04:07:53.773Z,0
2018-09-23T04:08:54.038Z,0
2018-09-23T04:09:54.006Z,0
2018-09-23T04:10:53.741Z,0
2018-09-23T04:11:53.726Z,0
2018-09-23T04:12:54.229Z,0
2018-09-23T04:13:53.692Z,0
2018-09-23T04:14:53.670Z,0
2018-09-23T04:15:54.186Z,0
2018-09-23T04:16:53.638Z,0
2018-09-23T04:17:53.911Z,0
2018-09-23T04:18:53.341Z,0
2018-09-23T04:19:53.861Z,0
2018-09-23T04:20:53.838Z,0
2018-09-23T04:21:53.829Z,0
2018-09-23T04:22:53.807Z,0
2018-09-23T04:23:53.527Z,0
2018-09-23T04:24:53.787Z,0
2018-09-23T04:25:53.766Z,0
2018-09-23T04:26:53.807Z,0
2018-09-23T04:27:53.732Z,0
2018-09-23T04:28:53.979Z,0
2018-09-23T04:29:53.437Z,0
2018-09-23T04:30:53.683Z,0
2018-09-23T04:31:53.148Z,0
2018-09-23T04:32:53.650Z,0
2018-09-23T04:33:53.641Z,0
2018-09-23T04:34:53.923Z,0
2018-09-23T04:35:53.878Z,0
2018-09-23T04:36:53.861Z,0
2018-09-23T04:37:53.328Z,0
2018-09-23T04:38:53.564Z,0
2018-09-23T04:39:53.843Z,0
2018-09-23T04:40:53.528Z,0
2018-09-23T04:41:53.722Z,0
2018-09-23T04:42:53.500Z,0
2018-09-23T04:43:53.221Z,0
2018-09-23T04:44:54.051Z,0
2018-09-23T04:45:53.468Z,0
2018-09-23T04:46:53.178Z,0
2018-09-23T04:47:52.896Z,0
2018-09-23T04:48:53.404Z,0
2018-09-23T04:49:53.137Z,0
2018-09-23T04:50:53.380Z,0
2018-09-23T04:51:53.826Z,0
2018-09-23T04:52:53.548Z,0
2018-09-23T04:53:53.331Z,0
2018-09-23T04:54:52.791Z,0
2018-09-23T04:55:53.038Z,4
2018-09-23T04:56:52.767Z,4
2018-09-23T04:57:53.270Z,4
2018-09-23T04:58:52.997Z,0
2018-09-23T04:59:53.237Z,4
2018-09-23T05:00:53.230Z,4
2018-09-23T05:01:52.942Z,4
2018-09-23T05:02:52.673Z,8
2018-09-23T05:03:53.184Z,8
2018-09-23T05:04:52.912Z,8
2018-09-23T05:05:52.887Z,8
2018-09-23T05:06:53.152Z,12
2018-09-23T05:07:52.856Z,12
2018-09-23T05:08:52.585Z,12
2018-09-23T05:09:53.106Z,16
2018-09-23T05:10:52.542Z,16
2018-09-23T05:11:52.793Z,20
2018-09-23T05:12:53.067Z,20
2018-09-23T05:13:53.287Z,24
2018-09-23T05:14:53.013Z,24
2018-09-23T05:15:53.013Z,24
2018-09-23T05:16:52.977Z,28
2018-09-23T05:17:52.701Z,28
2018-09-23T05:18:52.683Z,32
2018-09-23T05:19:52.672Z,36
2018-09-23T05:20:53.123Z,40
2018-09-23T05:21:53.177Z,48
2018-09-23T05:22:53.169Z,52
2018-09-23T05:23:52.866Z,60
2018-09-23T05:24:52.859Z,68
2018-09-23T05:25:52.856Z,76
2018-09-23T05:26:52.835Z,84
2018-09-23T05:27:52.285Z,92
2018-09-23T05:28:52.541Z,96
2018-09-23T05:29:52.521Z,104
2018-09-23T05:30:52.826Z,120
2018-09-23T05:31:52.753Z,132
2018-09-23T05:32:52.740Z,148
2018-09-23T05:33:52.729Z,156
2018-09-23T05:34:52.702Z,164
2018-09-23T05:35:52.694Z,164
2018-09-23T05:36:52.681Z,156
2018-09-23T05:37:52.931Z,152
2018-09-23T05:38:52.644Z,148
2018-09-23T05:39:52.630Z,156
2018-09-23T05:40:52.893Z,168
2018-09-23T05:41:52.340Z,184
2018-09-23T05:42:52.326Z,200
2018-09-23T05:43:52.883Z,212
2018-09-23T05:44:52.825Z,236
2018-09-23T05:45:52.803Z,248
2018-09-23T05:46:52.529Z,252
2018-09-23T05:47:52.776Z,248
2018-09-23T05:48:52.501Z,244
2018-09-23T05:49:52.221Z,240
2018-09-23T05:50:52.468Z,240
2018-09-23T05:51:52.188Z,240
2018-09-23T05:52:52.440Z,240
2018-09-23T05:53:52.157Z,248
2018-09-23T05:54:52.407Z,256
2018-09-23T05:55:52.643Z,248
2018-09-23T05:56:52.370Z,236
2018-09-23T05:57:52.630Z,244
2018-09-23T05:58:52.090Z,280
2018-09-23T05:59:52.057Z,328
2018-09-23T06:00:52.316Z,356
2018-09-23T06:01:52.307Z,364
2018-09-23T06:02:52.287Z,372
2018-09-23T06:03:52.025Z,380
2018-09-23T06:04:51.987Z,376
2018-09-23T06:05:52.243Z,388
2018-09-23T06:06:52.233Z,436
2018-09-23T06:07:52.506Z,500
2018-09-23T06:08:52.525Z,580
2018-09-23T06:09:52.176Z,660
2018-09-23T06:10:52.168Z,720
2018-09-23T06:11:51.627Z,740
2018-09-23T06:12:52.614Z,728
2018-09-23T06:13:51.851Z,676
2018-09-23T06:14:52.133Z,604
2018-09-23T06:15:52.103Z,548
2018-09-23T06:16:52.069Z,508
2018-09-23T06:17:52.052Z,488
2018-09-23T06:18:51.773Z,488
2018-09-23T06:19:52.284Z,508
2018-09-23T06:20:51.756Z,532
2018-09-23T06:21:51.738Z,564
2018-09-23T06:22:52.244Z,616
2018-09-23T06:23:51.973Z,648
2018-09-23T06:24:51.982Z,660
2018-09-23T06:25:51.947Z,656
2018-09-23T06:26:51.926Z,644
2018-09-23T06:27:51.648Z,676
2018-09-23T06:28:51.892Z,724
2018-09-23T06:29:51.876Z,780
2018-09-23T06:30:51.617Z,828
2018-09-23T06:31:52.129Z,848
2018-09-23T06:32:51.821Z,860
2018-09-23T06:33:51.553Z,872
2018-09-23T06:34:52.068Z,884
2018-09-23T06:35:51.800Z,900
2018-09-23T06:36:51.796Z,924
2018-09-23T06:37:52.254Z,952
2018-09-23T06:38:52.007Z,1032
2018-09-23T06:39:51.735Z,1116
2018-09-23T06:40:51.447Z,1156
2018-09-23T06:41:51.782Z,1156
2018-09-23T06:42:51.672Z,1196
2018-09-23T06:43:51.395Z,1284
2018-09-23T06:44:51.390Z,1392
2018-09-23T06:45:52.193Z,1472
2018-09-23T06:46:51.879Z,1456
2018-09-23T06:47:51.339Z,1404
2018-09-23T06:48:51.607Z,1368
2018-09-23T06:49:51.040Z,1332
2018-09-23T06:50:51.575Z,1304
2018-09-23T06:51:52.016Z,1292
2018-09-23T06:52:51.274Z,1320
2018-09-23T06:53:51.197Z,1352
2018-09-23T06:54:51.239Z,1356
2018-09-23T06:55:51.492Z,1320
2018-09-23T06:56:51.228Z,1312
2018-09-23T06:57:51.453Z,1260
2018-09-23T06:58:51.709Z,1272
2018-09-23T06:59:51.164Z,1336
2018-09-23T07:00:51.144Z,1352
2018-09-23T07:01:51.653Z,1360
2018-09-23T07:02:51.641Z,1360
2018-09-23T07:03:51.360Z,1340
2018-09-23T07:04:51.934Z,1288
2018-09-23T07:05:51.340Z,1248
2018-09-23T07:06:51.602Z,1228
2018-09-23T07:07:51.308Z,1220
2018-09-23T07:08:51.026Z,1224
2018-09-23T07:09:51.011Z,1232
2018-09-23T07:10:50.999Z,1260
2018-09-23T07:11:51.238Z,1400
2018-09-23T07:12:51.504Z,1608
2018-09-23T07:13:50.957Z,1840
2018-09-23T07:14:51.194Z,2108
2018-09-23T07:15:50.916Z,2320
2018-09-23T07:16:50.904Z,2436
2018-09-23T07:17:51.153Z,2400
2018-09-23T07:18:51.414Z,2168
2018-09-23T07:19:51.145Z,2044
2018-09-23T07:20:51.371Z,2008
2018-09-23T07:21:51.106Z,1916
2018-09-23T07:22:51.351Z,1964
2018-09-23T07:23:51.803Z,2024
2018-09-23T07:24:51.059Z,2048
2018-09-23T07:25:51.034Z,2068
2018-09-23T07:26:51.037Z,1996
2018-09-23T07:27:51.023Z,2136
2018-09-23T07:28:50.726Z,2460
2018-09-23T07:29:51.357Z,2608
2018-09-23T07:30:50.980Z,2792
2018-09-23T07:31:50.679Z,3144
2018-09-23T07:32:50.939Z,3160
2018-09-23T07:33:50.396Z,3060
2018-09-23T07:34:50.911Z,3328
2018-09-23T07:35:50.625Z,3428
2018-09-23T07:36:51.175Z,3608
2018-09-23T07:37:50.868Z,3364
2018-09-23T07:38:50.580Z,3280
2018-09-23T07:39:50.637Z,3096
2018-09-23T07:40:50.545Z,2644
2018-09-23T07:41:50.825Z,2128
2018-09-23T07:42:50.527Z,2016
2018-09-23T07:43:50.780Z,2072
2018-09-23T07:44:50.763Z,2384
2018-09-23T07:45:50.744Z,2880
2018-09-23T07:46:51.002Z,3140
2018-09-23T07:47:50.738Z,2980
2018-09-23T07:48:50.441Z,3116
2018-09-23T07:49:50.957Z,3480
2018-09-23T07:50:50.400Z,3664
2018-09-23T07:51:50.654Z,3828
2018-09-23T07:52:50.942Z,4052
2018-09-23T07:53:50.671Z,4028
2018-09-23T07:54:50.609Z,3800
2018-09-23T07:55:50.598Z,3888
2018-09-23T07:56:50.330Z,4580
2018-09-23T07:57:50.043Z,5744
2018-09-23T07:58:50.821Z,6516
2018-09-23T07:59:50.536Z,6128
2018-09-23T08:00:50.527Z,5252
2018-09-23T08:01:50.536Z,4856
2018-09-23T08:02:50.235Z,4904
2018-09-23T08:03:50.755Z,4968
2018-09-23T08:04:50.206Z,4920
2018-09-23T08:05:50.453Z,4404
2018-09-23T08:06:50.453Z,3840
2018-09-23T08:07:50.692Z,3624
2018-09-23T08:08:50.410Z,3860
2018-09-23T08:09:50.673Z,4012
2018-09-23T08:10:50.129Z,4096
2018-09-23T08:11:50.688Z,4140
2018-09-23T08:12:51.073Z,4192
2018-09-23T08:13:51.675Z,4128
2018-09-23T08:14:53.306Z,4072
2018-09-23T08:15:50.312Z,4428
2018-09-23T08:16:50.313Z,4936
2018-09-23T08:17:50.020Z,5232
2018-09-23T08:18:50.008Z,5464
2018-09-23T08:19:51.179Z,5740
2018-09-23T08:20:49.835Z,5144
2018-09-23T08:21:49.968Z,4900
2018-09-23T08:22:49.971Z,5000
2018-09-23T08:23:50.216Z,4248
2018-09-23T08:24:49.924Z,2916
2018-09-23T08:25:50.477Z,2012
2018-09-23T08:26:50.173Z,1720
2018-09-23T08:27:50.154Z,1948
2018-09-23T08:28:50.405Z,1988
2018-09-23T08:29:50.123Z,1948
2018-09-23T08:30:50.380Z,1932
2018-09-23T08:31:50.096Z,2180
2018-09-23T08:32:50.445Z,2096
2018-09-23T08:33:50.072Z,2596
2018-09-23T08:34:50.254Z,3152
2018-09-23T08:35:50.295Z,2956
2018-09-23T08:36:49.496Z,2596
2018-09-23T08:37:49.750Z,2592
2018-09-23T08:38:50.266Z,2800
2018-09-23T08:39:50.213Z,2340
2018-09-23T08:40:49.720Z,2304
2018-09-23T08:41:49.692Z,2356
2018-09-23T08:42:50.147Z,2108
2018-09-23T08:43:50.207Z,2128
2018-09-23T08:44:50.189Z,2280
2018-09-23T08:45:49.639Z,2688
2018-09-23T08:46:49.887Z,2840
2018-09-23T08:47:50.255Z,2528
2018-09-23T08:48:49.858Z,2784
2018-09-23T08:49:49.847Z,2916
2018-09-23T08:50:49.564Z,2672
2018-09-23T08:51:50.531Z,2680
2018-09-23T08:52:49.808Z,2580
2018-09-23T08:53:49.268Z,2368
2018-09-23T08:54:49.786Z,2592
2018-09-23T08:55:49.760Z,2396
2018-09-23T08:56:49.764Z,2108
2018-09-23T08:57:50.386Z,2088
2018-09-23T08:58:49.724Z,2300
2018-09-23T08:59:49.719Z,1908
2018-09-23T09:00:49.430Z,1844
2018-09-23T09:01:49.420Z,1832
2018-09-23T09:02:49.403Z,1884
2018-09-23T09:03:49.596Z,1980
2018-09-23T09:04:49.372Z,2004
2018-09-23T09:05:49.896Z,2116
2018-09-23T09:06:49.337Z,2172
2018-09-23T09:07:49.590Z,2280
2018-09-23T09:08:49.314Z,2492
2018-09-23T09:09:49.304Z,2524
2018-09-23T09:10:49.280Z,2680
2018-09-23T09:11:49.971Z,2820
2018-09-23T09:12:49.274Z,2768
2018-09-23T09:13:49.511Z,3232
2018-09-23T09:14:49.762Z,3356
2018-09-23T09:15:49.483Z,3180
2018-09-23T09:16:49.465Z,3440
2018-09-23T09:17:49.190Z,3560
2018-09-23T09:18:50.559Z,2972
2018-09-23T09:19:49.169Z,2932
2018-09-23T09:20:49.420Z,2472
2018-09-23T09:21:49.395Z,2528
2018-09-23T09:22:49.383Z,2696
2018-09-23T09:23:49.366Z,2996
2018-09-23T09:24:49.091Z,2572
2018-09-23T09:25:49.613Z,2520
2018-09-23T09:26:49.541Z,3212
2018-09-23T09:27:49.310Z,3868
2018-09-23T09:28:48.782Z,4376
2018-09-23T09:29:49.564Z,4796
2018-09-23T09:30:49.545Z,4760
2018-09-23T09:31:49.531Z,4732
2018-09-23T09:32:48.979Z,4412
2018-09-23T09:33:48.695Z,4640
2018-09-23T09:34:48.955Z,4716
2018-09-23T09:35:48.680Z,5072
2018-09-23T09:36:49.186Z,4736
2018-09-23T09:37:48.911Z,4292
2018-09-23T09:38:48.897Z,3744
2018-09-23T09:39:48.887Z,3508
2018-09-23T09:40:49.404Z,3624
2018-09-23T09:41:49.389Z,4216
2018-09-23T09:42:49.102Z,4660
2018-09-23T09:43:49.092Z,4248
2018-09-23T09:44:49.071Z,4592
2018-09-23T09:45:49.070Z,3888
2018-09-23T09:46:49.077Z,3300
2018-09-23T09:47:49.061Z,2904
2018-09-23T09:48:49.025Z,3268
2018-09-23T09:49:48.757Z,3724
2018-09-23T09:50:49.004Z,3924
2018-09-23T09:51:48.982Z,3688
2018-09-23T09:52:48.714Z,2956
2018-09-23T09:53:48.969Z,2932
2018-09-23T09:54:48.677Z,2128
2018-09-23T09:55:48.403Z,1896
2018-09-23T09:56:48.653Z,2108
2018-09-23T09:57:48.660Z,2208
2018-09-23T09:58:48.897Z,2556
2018-09-23T09:59:48.888Z,3272
2018-09-23T10:00:49.120Z,3156
2018-09-23T10:01:48.838Z,2940
2018-09-23T10:02:48.825Z,3000
2018-09-23T10:03:49.020Z,2544
2018-09-23T10:04:48.577Z,2468
2018-09-23T10:05:48.549Z,3064
2018-09-23T10:06:48.514Z,4604
2018-09-23T10:07:48.506Z,4688
2018-09-23T10:08:49.028Z,4416
2018-09-23T10:09:48.467Z,3920
2018-09-23T10:10:48.769Z,3752
2018-09-23T10:11:48.710Z,3784
2018-09-23T10:12:48.960Z,2920
2018-09-23T10:13:48.680Z,2316
2018-09-23T10:14:49.053Z,2068
2018-09-23T10:15:48.665Z,2332
2018-09-23T10:16:48.380Z,2456
2018-09-23T10:17:48.891Z,2584
2018-09-23T10:18:48.604Z,2088
2018-09-23T10:19:48.431Z,2236
2018-09-23T10:20:48.584Z,2528
2018-09-23T10:21:48.304Z,1772
2018-09-23T10:22:48.225Z,1840
2018-09-23T10:23:49.200Z,1568
2018-09-23T10:24:48.525Z,1280
2018-09-23T10:25:48.245Z,1400
2018-09-23T10:26:48.515Z,1588
2018-09-23T10:27:48.484Z,1556
2018-09-23T10:28:48.465Z,1420
2018-09-23T10:29:48.556Z,1416
2018-09-23T10:30:48.449Z,1392
2018-09-23T10:31:47.964Z,1008
2018-09-23T10:32:48.432Z,972
2018-09-23T10:33:48.449Z,992
2018-09-23T10:34:48.395Z,1188
2018-09-23T10:35:48.663Z,1232
2018-09-23T10:36:48.101Z,1264
2018-09-23T10:37:48.620Z,1252
2018-09-23T10:38:48.341Z,1016
2018-09-23T10:39:48.313Z,1252
2018-09-23T10:40:48.319Z,1328
2018-09-23T10:41:48.569Z,1436
2018-09-23T10:42:48.303Z,1488
2018-09-23T10:43:48.529Z,1448
2018-09-23T10:44:48.259Z,1280
2018-09-23T10:45:48.504Z,1504
2018-09-23T10:46:48.308Z,1672
2018-09-23T10:47:48.202Z,1960
2018-09-23T10:48:47.951Z,1664
2018-09-23T10:49:47.658Z,1744
2018-09-23T10:50:48.441Z,1404
2018-09-23T10:51:48.411Z,1324
2018-09-23T10:52:47.871Z,1396
2018-09-23T10:53:48.118Z,1184
2018-09-23T10:54:48.094Z,1184
2018-09-23T10:55:47.945Z,1392
2018-09-23T10:56:48.071Z,1340
2018-09-23T10:57:47.805Z,1228
2018-09-23T10:58:48.046Z,1244
2018-09-23T10:59:48.057Z,1356
2018-09-23T11:00:48.014Z,1336
2018-09-23T11:01:48.057Z,1424
2018-09-23T11:02:48.019Z,1524
2018-09-23T11:03:48.627Z,1592
2018-09-23T11:04:48.260Z,1524
2018-09-23T11:05:47.955Z,1504
2018-09-23T11:06:47.922Z,1620
2018-09-23T11:07:47.920Z,1916
2018-09-23T11:08:47.901Z,2012
2018-09-23T11:09:47.837Z,2048
2018-09-23T11:10:47.882Z,1756
2018-09-23T11:11:47.589Z,1820
2018-09-23T11:12:47.841Z,1588
2018-09-23T11:13:47.829Z,1400
2018-09-23T11:14:47.550Z,1392
2018-09-23T11:15:47.791Z,1508
2018-09-23T11:16:48.057Z,1488
2018-09-23T11:17:47.506Z,1908
2018-09-23T11:18:47.696Z,2324
2018-09-23T11:19:47.473Z,2060
2018-09-23T11:20:47.455Z,1780
2018-09-23T11:21:47.710Z,1672
2018-09-23T11:22:47.709Z,1552
2018-09-23T11:23:47.424Z,1496
2018-09-23T11:24:48.071Z,1652
2018-09-23T11:25:47.666Z,1376
2018-09-23T11:26:47.372Z,1504
2018-09-23T11:27:47.906Z,1268
2018-09-23T11:28:47.072Z,1208
2018-09-23T11:29:47.854Z,1420
2018-09-23T11:30:47.865Z,1328
2018-09-23T11:31:48.041Z,1436
2018-09-23T11:32:47.285Z,1656
2018-09-23T11:33:47.531Z,1708
2018-09-23T11:34:47.253Z,1704
2018-09-23T11:35:47.263Z,1624
2018-09-23T11:36:47.481Z,1780
2018-09-23T11:37:47.745Z,1780
2018-09-23T11:38:47.456Z,2288
2018-09-23T11:39:47.488Z,1764
2018-09-23T11:40:47.475Z,1908
2018-09-23T11:41:47.423Z,2212
2018-09-23T11:42:47.585Z,3784
2018-09-23T11:43:47.645Z,3452
2018-09-23T11:44:47.627Z,4444
2018-09-23T11:45:47.640Z,4780
2018-09-23T11:46:47.355Z,4156
2018-09-23T11:47:47.329Z,4140
2018-09-23T11:48:47.310Z,3628
2018-09-23T11:49:47.299Z,3304
2018-09-23T11:50:47.277Z,3096
2018-09-23T11:51:46.993Z,3388
2018-09-23T11:52:46.717Z,3972
2018-09-23T11:53:47.505Z,3580
2018-09-23T11:54:47.481Z,2364
2018-09-23T11:55:47.206Z,1684
2018-09-23T11:56:47.197Z,1624
2018-09-23T11:57:47.457Z,1368
2018-09-23T11:58:47.299Z,1348
2018-09-23T11:59:47.139Z,1388
2018-09-23T12:00:47.131Z,992
2018-09-23T12:01:47.783Z,1040
2018-09-23T12:02:46.852Z,1604
2018-09-23T12:03:47.367Z,2356
2018-09-23T12:04:46.543Z,2512
2018-09-23T12:05:46.798Z,2280
2018-09-23T12:06:47.039Z,2320
2018-09-23T12:07:46.770Z,2580
2018-09-23T12:08:47.316Z,1640
2018-09-23T12:09:47.020Z,1392
2018-09-23T12:10:47.335Z,1656
2018-09-23T12:11:46.972Z,1472
2018-09-23T12:12:47.001Z,1600
2018-09-23T12:13:46.398Z,1904
2018-09-23T12:14:46.714Z,1856
2018-09-23T12:15:47.291Z,2000
2018-09-23T12:16:47.160Z,1740
2018-09-23T12:17:46.614Z,1364
2018-09-23T12:18:46.327Z,1320
2018-09-23T12:19:46.323Z,1572
2018-09-23T12:20:46.565Z,1688
2018-09-23T12:21:46.814Z,1720
2018-09-23T12:22:47.058Z,1832
2018-09-23T12:23:46.519Z,2132
2018-09-23T12:24:46.504Z,2168
2018-09-23T12:25:47.926Z,2416
2018-09-23T12:26:47.001Z,2216
2018-09-23T12:27:46.989Z,2036
2018-09-23T12:28:46.975Z,1416
2018-09-23T12:29:46.875Z,1136
2018-09-23T12:30:46.407Z,1156
2018-09-23T12:31:46.934Z,1324
2018-09-23T12:32:46.377Z,1996
2018-09-23T12:33:46.367Z,2068
2018-09-23T12:34:46.874Z,1652
2018-09-23T12:35:46.600Z,1424
2018-09-23T12:36:46.582Z,1384
2018-09-23T12:37:46.044Z,1416
2018-09-23T12:38:46.285Z,1332
2018-09-23T12:39:46.622Z,1392
2018-09-23T12:40:46.521Z,1328
2018-09-23T12:41:46.510Z,1384
2018-09-23T12:42:46.509Z,1140
2018-09-23T12:43:46.749Z,1428
2018-09-23T12:44:46.201Z,1456
2018-09-23T12:45:46.369Z,1356
2018-09-23T12:46:46.173Z,732
2018-09-23T12:47:46.431Z,544
2018-09-23T12:48:46.406Z,660
2018-09-23T12:49:46.390Z,884
2018-09-23T12:50:46.106Z,760
2018-09-23T12:51:46.627Z,1108
2018-09-23T12:52:46.823Z,1108
2018-09-23T12:53:46.346Z,964
2018-09-23T12:54:46.310Z,820
2018-09-23T12:55:46.028Z,804
2018-09-23T12:56:46.278Z,900
2018-09-23T12:57:46.264Z,1132
2018-09-23T12:58:46.251Z,1352
2018-09-23T12:59:46.000Z,1632
2018-09-23T13:00:46.229Z,2040
2018-09-23T13:01:46.237Z,2524
2018-09-23T13:02:46.112Z,2840
2018-09-23T13:03:46.484Z,3012
2018-09-23T13:04:46.157Z,3148
2018-09-23T13:05:46.411Z,3304
2018-09-23T13:06:45.872Z,3284
2018-09-23T13:07:45.844Z,3844
2018-09-23T13:08:46.089Z,4056
2018-09-23T13:09:46.341Z,3812
2018-09-23T13:10:46.060Z,3112
2018-09-23T13:11:46.065Z,2640
2018-09-23T13:12:46.063Z,2824
2018-09-23T13:13:46.015Z,3036
2018-09-23T13:14:46.000Z,3604
2018-09-23T13:15:45.759Z,3768
2018-09-23T13:16:46.228Z,3980
2018-09-23T13:17:45.438Z,3984
2018-09-23T13:18:46.264Z,3484
2018-09-23T13:19:46.432Z,2864
2018-09-23T13:20:45.662Z,2800
2018-09-23T13:21:46.187Z,2928
2018-09-23T13:22:45.891Z,2984
2018-09-23T13:23:46.147Z,3024
2018-09-23T13:24:45.868Z,3212
2018-09-23T13:25:45.572Z,3204
2018-09-23T13:26:45.551Z,3228
2018-09-23T13:27:46.077Z,3224
2018-09-23T13:28:45.541Z,3388
2018-09-23T13:29:45.775Z,3456
2018-09-23T13:30:45.778Z,3116
2018-09-23T13:31:46.019Z,2400
2018-09-23T13:32:45.723Z,1820
2018-09-23T13:33:45.702Z,1460
2018-09-23T13:34:45.688Z,1388
2018-09-23T13:35:45.883Z,1492
2018-09-23T13:36:45.657Z,1732
2018-09-23T13:37:45.126Z,1976
2018-09-23T13:38:45.806Z,2164
2018-09-23T13:39:45.892Z,2408
2018-09-23T13:40:45.338Z,3120
2018-09-23T13:41:45.325Z,3564
2018-09-23T13:42:45.857Z,3648
2018-09-23T13:43:45.818Z,2904
2018-09-23T13:44:45.019Z,2772
2018-09-23T13:45:45.327Z,2640
2018-09-23T13:46:45.713Z,2332
2018-09-23T13:47:45.491Z,2452
2018-09-23T13:48:45.798Z,2324
2018-09-23T13:49:45.196Z,2280
2018-09-23T13:50:45.215Z,3364
2018-09-23T13:51:45.435Z,3048
2018-09-23T13:52:45.417Z,2432
2018-09-23T13:53:45.407Z,2036